Hachinohe Air Base, Japan

9:41 AM JST on July 12, 2014 (GMT +0900)
Aomori (RJSA) Elev 659 ft | 40.73 °N, 140.69 °E | Change Station

Current weather conditions updated 41 minutes ago

Scattered Clouds
Scattered Clouds
77 °F
Feels Like 77 °F
N
15
Wind Variable Wind from SW

Today is forecast to be Warmer than yesterday. Afternoon showers and thunderstorms.

Today
High -- | Low -- °F
--% Chance of Precip.
Yesterday
High -- | Low -- °F
Precip. -- in
4:13 AM 7:05 PM
Full, 100% visible
Pressure 29.59 in
Visibility 6.2 miles
Clouds Few 2000 ft
Scattered Clouds 3000 ft
Dew Point 64 °F
Humidity 65%
Rainfall 0.00 in
Snow Depth Not available.
UV 0 out of 12
Pollen Not available.
Air Quality Not available.
Flu Activity Not available.
METAR RJSA 120000Z 22013KT 9999 FEW020 SCT030 25/18 Q1002

More Conditions Fewer Conditions

Pressure 29.59 in
Visibility 6.2 miles
Clouds Few 2000 ft
Scattered Clouds 3000 ft
Dew Point 64 °F
Humidity 65%
Rainfall 0.00 in
Snow Depth Not available.
UV 0 out of 12
Pollen Not available.
Air Quality Not available.
Flu Activity Not available.
METAR RJSA 120000Z 22013KT 9999 FEW020 SCT030 25/18 Q1002

More Conditions Fewer Conditions

10-Day Weather Forecast

Almanac

Astronomy

Jul. 12, 2014 Rise Set
Actual Time 4:13 AM JST 7:05 PM JST
Civil Twilight 3:41 AM JST 7:37 PM JST
Nautical Twilight 3:00 AM JST 8:18 PM JST
Astronomical Twilight 2:12 AM JST 9:05 PM JST
Moon 6:34 PM JST 3:49 AM JST
Length of Visible Light 15h 56m
Length of Day
14h 51m
Tomorrow will be 1m 14s shorter.
Full, 100% of the Moon is Illuminated
Jul 11
Full
Jul 12
Full
Jul 18
Last Quarter
Jul 26
New
Aug 3
First Quarter

Yesterday's Extremes

Country Highs Country Lows

Community

WunderPhotos

Upload Photos

1,732,608 photos uploaded!

WunderBlogs® & News

Nearby

Snow Depth

Not available.

Earthquake Activity

City Distance Mag. Time & Date
No recent earthquake activity has been reported nearby.
Minimum magnitude displayed is 2.5.

Coastal Water Temperatures

Place Temperature
No Stations Reporting

Nearby Weather Stations

There are no personal weather stations in this area.